Time;durP1;ratioP1;P1;durP2;ratioP2;P2;SDS_P1;SDS_P2;PMS_P1;PMS_P2;Temp;Humidity;BMP_temperature;BMP_pressure;BME280_temperature;BME280_humidity;BME280_pressure;Samples;Min_cycle;Max_cycle;Signal;HPM_P1;HPM_P2
2022/11/08 00:02:12;;;;;;;;;;;;;;;16.86;nan;101365.75;5008463;28;19923;-32
2022/11/08 00:04:38;;;;;;;;;;;;;;;16.85;nan;101364.13;5040177;28;19916;-32
2022/11/08 00:15:15;;;;;;;;;;;;;;;16.97;nan;101358.44;5039719;28;19924;-32
2022/11/08 00:17:41;;;;;;;;;;;;;;;17.00;nan;101364.09;5046647;28;19917;-32
2022/11/08 00:20:07;;;;;;;;;;;;;;;17.03;nan;101368.94;5048926;28;19921;-32
2022/11/08 00:22:33;;;;;;;;;;;;;;;17.06;nan;101359.50;5042533;28;20053;-32
2022/11/08 00:24:58;;;;;;;;;;;;;;;17.06;nan;101365.72;5047003;28;19923;-32
2022/11/08 00:27:24;;;;;;;;;;;;;;;17.04;nan;101367.06;5044714;28;19925;-32
2022/11/08 00:29:49;;;;;;;;;;;;;;;17.04;nan;101358.94;5044676;28;19924;-32
2022/11/08 00:32:17;;;;;;;;;;;;;;;17.06;nan;101370.31;5041429;28;19927;-32
2022/11/08 00:34:43;;;;;;;;;;;;;;;17.08;nan;101377.06;5046066;28;19940;-32
2022/11/08 00:37:09;;;;;;;;;;;;;;;17.12;nan;101369.19;5045242;28;19959;-32
2022/11/08 00:39:34;;;;;;;;;;;;;;;17.15;nan;101379.47;5042964;28;19944;-32
2022/11/08 00:42:00;;;;;;;;;;;;;;;17.16;nan;101378.38;5046163;28;19916;-32
2022/11/08 00:44:25;;;;;;;;;;;;;;;17.14;nan;101384.09;5046237;28;19920;-32
2022/11/08 00:46:50;;;;;;;;;;;;;;;17.15;nan;101377.56;5045928;28;19916;-32
2022/11/08 00:49:16;;;;;;;;;;;;;;;17.18;nan;101382.44;5044283;28;19916;-32
2022/11/08 00:51:42;;;;;;;;;;;;;;;17.17;nan;101380.00;5043008;28;19924;-32
2022/11/08 00:54:08;;;;;;;;;;;;;;;17.19;nan;101378.63;5041746;28;19917;-32
2022/11/08 00:56:34;;;;;;;;;;;;;;;17.21;nan;101379.16;5047885;28;20301;-32
2022/11/08 00:58:59;;;;;;;;;;;;;;;17.21;nan;101384.59;5045044;28;19917;-32
2022/11/08 01:01:25;;;;;;;;;;;;;;;17.22;nan;101383.50;5042500;28;19928;-32
2022/11/08 01:03:50;;;;;;;;;;;;;;;17.21;nan;101376.47;5044282;28;19927;-32
2022/11/08 01:06:17;;;;;;;;;;;;;;;17.21;nan;101376.47;5046805;28;19917;-32
2022/11/08 01:08:43;;;;;;;;;;;;;;;17.21;nan;101370.22;5041250;28;19917;-32
2022/11/08 01:11:11;;;;;;;;;;;;;;;17.19;nan;101367.81;5044228;28;20370;-32
2022/11/08 01:13:37;;;;;;;;;;;;;;;17.18;nan;101373.50;5041941;28;19917;-32
2022/11/08 01:16:09;;;;;;;;;;;;;;;17.16;nan;101379.19;5041669;28;19925;-32
2022/11/08 01:18:35;;;;;;;;;;;;;;;17.12;nan;101380.03;5042324;28;19931;-32
2022/11/08 01:21:01;;;;;;;;;;;;;;;17.07;nan;101374.66;5045938;28;20293;-32
2022/11/08 01:23:26;;;;;;;;;;;;;;;17.04;nan;101381.41;5046178;28;19974;-32
2022/11/08 01:25:52;;;;;;;;;;;;;;;16.94;nan;101367.91;5042735;28;19916;-32
2022/11/08 01:28:17;;;;;;;;;;;;;;;16.88;nan;101371.72;5043711;28;20321;-32
2022/11/08 01:30:43;;;;;;;;;;;;;;;16.79;nan;101368.75;5046639;28;20298;-32
2022/11/08 01:33:09;;;;;;;;;;;;;;;16.72;nan;101376.34;5042402;28;20344;-32
2022/11/08 01:35:35;;;;;;;;;;;;;;;16.68;nan;101374.44;5042597;28;20357;-32
2022/11/08 01:38:01;;;;;;;;;;;;;;;16.63;nan;101367.94;5044270;28;19924;-32
2022/11/08 01:40:26;;;;;;;;;;;;;;;16.59;nan;101366.88;5046754;28;19924;-32
2022/11/08 01:42:52;;;;;;;;;;;;;;;16.55;nan;101365.81;5043706;28;19917;-32
2022/11/08 01:45:36;;;;;;;;;;;;;;;16.50;nan;101371.19;5049358;28;19920;-33
2022/11/08 01:48:02;;;;;;;;;;;;;;;16.41;nan;101364.72;5041669;28;20167;-33
2022/11/08 01:50:27;;;;;;;;;;;;;;;16.37;nan;101369.06;5043547;28;19963;-33
2022/11/08 01:52:54;;;;;;;;;;;;;;;16.34;nan;101369.63;5041965;28;19924;-32
2022/11/08 01:55:26;;;;;;;;;;;;;;;16.31;nan;101362.81;5040527;28;20011;-32
2022/11/08 01:58:00;;;;;;;;;;;;;;;16.29;nan;101361.47;5042040;28;19935;-33
2022/11/08 02:00:25;;;;;;;;;;;;;;;16.27;nan;101369.06;5042612;28;20268;-32
2022/11/08 02:02:56;;;;;;;;;;;;;;;16.25;nan;101355.81;5044654;28;19920;-33
2022/11/08 02:05:25;;;;;;;;;;;;;;;16.24;nan;101358.78;5042158;28;19917;-32
2022/11/08 02:08:09;;;;;;;;;;;;;;;16.23;nan;101357.97;5042581;28;19917;-33
2022/11/08 02:10:37;;;;;;;;;;;;;;;16.23;nan;101354.47;5039182;28;20008;-32
2022/11/08 02:13:04;;;;;;;;;;;;;;;16.26;nan;101348.50;5041347;28;20386;-33
2022/11/08 02:15:29;;;;;;;;;;;;;;;16.30;nan;101347.69;5044536;28;19968;-32
2022/11/08 02:17:54;;;;;;;;;;;;;;;16.37;nan;101350.13;5044764;28;19971;-33
2022/11/08 02:20:20;;;;;;;;;;;;;;;16.39;nan;101347.97;5041393;28;19921;-32
2022/11/08 02:22:49;;;;;;;;;;;;;;;16.42;nan;101347.41;5038100;28;19974;-33
2022/11/08 02:25:15;;;;;;;;;;;;;;;16.45;nan;101346.06;5041571;28;19959;-32
2022/11/08 02:27:40;;;;;;;;;;;;;;;16.47;nan;101346.59;5042086;28;20334;-32
2022/11/08 02:30:06;;;;;;;;;;;;;;;16.50;nan;101352.25;5043408;28;19928;-32
2022/11/08 02:32:41;;;;;;;;;;;;;;;16.52;nan;101354.72;5040201;28;19920;-32
2022/11/08 02:35:09;;;;;;;;;;;;;;;16.51;nan;101353.88;5039782;28;19921;-32
2022/11/08 02:37:34;;;;;;;;;;;;;;;16.53;nan;101359.03;5041953;28;19924;-32
2022/11/08 02:40:00;;;;;;;;;;;;;;;16.57;nan;101355.50;5042735;28;19920;-32
2022/11/08 02:42:25;;;;;;;;;;;;;;;16.60;nan;101346.84;5044545;28;19920;-32
2022/11/08 02:44:50;;;;;;;;;;;;;;;16.66;nan;101358.47;5042198;28;19986;-32
2022/11/08 02:47:16;;;;;;;;;;;;;;;16.71;nan;101353.09;5040708;28;20394;-32
2022/11/08 02:49:41;;;;;;;;;;;;;;;16.74;nan;101346.31;5045088;28;20374;-32
2022/11/08 02:52:07;;;;;;;;;;;;;;;16.77;nan;101354.69;5039008;28;19948;-32
2022/11/08 02:54:32;;;;;;;;;;;;;;;16.80;nan;101354.13;5045033;28;19917;-33
2022/11/08 02:56:57;;;;;;;;;;;;;;;16.85;nan;101350.59;5040154;28;20401;-32
2022/11/08 02:59:23;;;;;;;;;;;;;;;16.89;nan;101359.81;5040668;28;19925;-32
2022/11/08 03:01:48;;;;;;;;;;;;;;;16.90;nan;101367.66;5044275;28;19917;-32
2022/11/08 03:04:13;;;;;;;;;;;;;;;16.87;nan;101361.97;5042533;28;20290;-32
2022/11/08 03:06:39;;;;;;;;;;;;;;;16.83;nan;101358.19;5045071;28;19916;-32
2022/11/08 03:09:05;;;;;;;;;;;;;;;16.81;nan;101363.06;5040600;28;20772;-32
2022/11/08 03:11:30;;;;;;;;;;;;;;;16.77;nan;101367.41;5043929;28;20404;-32
2022/11/08 03:13:56;;;;;;;;;;;;;;;16.78;nan;101353.59;5043407;28;19927;-32
2022/11/08 03:16:21;;;;;;;;;;;;;;;16.74;nan;101357.13;5045543;28;19917;-32
2022/11/08 03:18:46;;;;;;;;;;;;;;;16.73;nan;101356.34;5043380;28;20354;-33
2022/11/08 03:21:12;;;;;;;;;;;;;;;16.74;nan;101357.13;5040322;28;20405;-32
2022/11/08 03:23:37;;;;;;;;;;;;;;;16.73;nan;101353.63;5043620;28;19921;-32
2022/11/08 03:26:03;;;;;;;;;;;;;;;16.76;nan;101357.69;5042242;28;19928;-32
2022/11/08 03:28:29;;;;;;;;;;;;;;;16.80;nan;101358.75;5045026;28;19953;-32
2022/11/08 03:30:54;;;;;;;;;;;;;;;16.85;nan;101364.94;5042016;28;20283;-32
2022/11/08 03:33:19;;;;;;;;;;;;;;;16.91;nan;101357.63;5041827;28;20344;-32
2022/11/08 03:35:45;;;;;;;;;;;;;;;16.95;nan;101352.47;5041271;28;20393;-32
2022/11/08 03:38:11;;;;;;;;;;;;;;;16.94;nan;101350.84;5044444;28;19924;-32
2022/11/08 03:40:36;;;;;;;;;;;;;;;16.94;nan;101351.66;5039595;28;19965;-32
2022/11/08 03:43:02;;;;;;;;;;;;;;;16.95;nan;101344.34;5039053;28;20378;-32
2022/11/08 03:45:27;;;;;;;;;;;;;;;16.98;nan;101346.50;5039791;28;20362;-32
2022/11/08 03:47:52;;;;;;;;;;;;;;;17.02;nan;101353.78;5045141;28;19917;-33
2022/11/08 03:50:18;;;;;;;;;;;;;;;17.03;nan;101351.91;5044563;28;20035;-32
2022/11/08 03:52:47;;;;;;;;;;;;;;;17.03;nan;101350.00;5041142;28;19925;-32
2022/11/08 03:55:13;;;;;;;;;;;;;;;17.03;nan;101355.41;5039584;28;19978;-32
2022/11/08 03:57:38;;;;;;;;;;;;;;;17.04;nan;101348.09;5043883;28;19924;-32
2022/11/08 04:00:04;;;;;;;;;;;;;;;17.06;nan;101348.66;5041440;28;19936;-32
2022/11/08 04:02:29;;;;;;;;;;;;;;;17.06;nan;101349.47;5044219;28;20337;-33
2022/11/08 04:04:55;;;;;;;;;;;;;;;17.10;nan;101338.88;5038137;28;20035;-32
2022/11/08 04:07:20;;;;;;;;;;;;;;;17.11;nan;101344.03;5045045;28;20423;-32
2022/11/08 04:09:45;;;;;;;;;;;;;;;17.09;nan;101346.19;5046531;28;20386;-33
2022/11/08 04:23:06;;;;;;;;;;;;;;;17.06;nan;101348.66;5041440;28;20066;-33
2022/11/08 04:25:32;;;;;;;;;;;;;;;17.04;nan;101348.09;5046534;28;20430;-32
2022/11/08 04:27:57;;;;;;;;;;;;;;;17.03;nan;101357.31;5042340;28;20259;-33
2022/11/08 04:30:23;;;;;;;;;;;;;;;17.04;nan;101350.81;5043563;28;19987;-32
2022/11/08 04:32:48;;;;;;;;;;;;;;;17.01;nan;101352.19;5046793;28;19916;-32
2022/11/08 04:35:13;;;;;;;;;;;;;;;17.03;nan;101355.41;5047670;28;19925;-32
2022/11/08 04:37:38;;;;;;;;;;;;;;;17.00;nan;101358.69;5044396;28;20286;-32
2022/11/08 04:40:04;;;;;;;;;;;;;;;17.02;nan;101355.69;5042373;28;20003;-33
2022/11/08 04:42:29;;;;;;;;;;;;;;;16.98;nan;101351.91;5042566;28;19931;-32
2022/11/08 04:44:55;;;;;;;;;;;;;;;16.99;nan;101350.84;5046757;28;20034;-32
2022/11/08 04:47:20;;;;;;;;;;;;;;;17.03;nan;101354.59;5045005;28;19956;-32
2022/11/08 04:49:45;;;;;;;;;;;;;;;17.06;nan;101344.06;5042981;28;19917;-32
2022/11/08 04:52:10;;;;;;;;;;;;;;;17.09;nan;101354.31;5043039;28;19917;-33
2022/11/08 04:54:36;;;;;;;;;;;;;;;17.09;nan;101354.31;5042982;28;19928;-33
2022/11/08 04:57:01;;;;;;;;;;;;;;;17.11;nan;101351.34;5041566;28;19944;-32
2022/11/08 04:59:26;;;;;;;;;;;;;;;17.17;nan;101350.22;5044814;28;20305;-32
2022/11/08 05:01:52;;;;;;;;;;;;;;;17.19;nan;101348.84;5044181;28;19917;-33
2022/11/08 05:04:17;;;;;;;;;;;;;;;17.26;nan;101347.75;5039682;28;19917;-33
2022/11/08 05:06:43;;;;;;;;;;;;;;;17.30;nan;101346.91;5043099;28;19917;-32
2022/11/08 05:09:08;;;;;;;;;;;;;;;17.32;nan;101352.06;5048440;28;19962;-33
2022/11/08 05:11:34;;;;;;;;;;;;;;;17.34;nan;101347.16;5042920;28;19916;-33
2022/11/08 05:13:59;;;;;;;;;;;;;;;17.37;nan;101343.91;5046463;28;19921;-32
2022/11/08 05:16:26;;;;;;;;;;;;;;;17.39;nan;101349.84;5040741;28;20633;-33
2022/11/08 05:18:52;;;;;;;;;;;;;;;17.41;nan;101345.75;5044996;28;19917;-33
2022/11/08 05:24:03;;;;;;;;;;;;;;;17.39;nan;101353.34;5042915;28;19936;-32
2022/11/08 05:26:29;;;;;;;;;;;;;;;17.39;nan;101349.84;5043286;28;20438;-33
2022/11/08 05:28:54;;;;;;;;;;;;;;;17.38;nan;101342.81;5041526;28;19923;-33
2022/11/08 05:31:21;;;;;;;;;;;;;;;17.35;nan;101346.88;5042670;28;20193;-33
2022/11/08 05:33:47;;;;;;;;;;;;;;;17.35;nan;101346.06;5041233;28;19917;-33
2022/11/08 05:36:13;;;;;;;;;;;;;;;17.35;nan;101346.06;5042293;28;20017;-33
2022/11/08 05:38:39;;;;;;;;;;;;;;;17.34;nan;101350.69;5040685;28;20043;-33
2022/11/08 05:41:05;;;;;;;;;;;;;;;17.33;nan;101343.66;5044099;28;20023;-32
2022/11/08 05:43:31;;;;;;;;;;;;;;;17.31;nan;101355.84;5043263;28;19925;-33
2022/11/08 05:45:56;;;;;;;;;;;;;;;17.27;nan;101350.19;5038327;28;19924;-32
2022/11/08 05:48:21;;;;;;;;;;;;;;;17.25;nan;101355.06;5038243;28;19924;-32
2022/11/08 05:50:47;;;;;;;;;;;;;;;17.24;nan;101352.66;5041163;28;20019;-33
2022/11/08 05:53:12;;;;;;;;;;;;;;;17.22;nan;101359.13;5042397;28;20007;-33
2022/11/08 05:55:38;;;;;;;;;;;;;;;17.20;nan;101355.88;5042893;28;20000;-32
2022/11/08 05:58:03;;;;;;;;;;;;;;;17.16;nan;101356.72;5040306;28;19925;-33
2022/11/08 06:00:29;;;;;;;;;;;;;;;17.14;nan;101365.13;5045103;28;20019;-33
2022/11/08 06:02:54;;;;;;;;;;;;;;;17.11;nan;101373.81;5041425;28;20061;-33
2022/11/08 06:05:20;;;;;;;;;;;;;;;17.09;nan;101364.34;5040731;28;20402;-33
2022/11/08 06:07:45;;;;;;;;;;;;;;;17.08;nan;101360.03;5043356;28;20492;-33
2022/11/08 06:10:11;;;;;;;;;;;;;;;17.05;nan;101361.34;5041897;28;19920;-33
2022/11/08 06:12:37;;;;;;;;;;;;;;;17.04;nan;101370.56;5038917;28;20390;-33
2022/11/08 06:15:03;;;;;;;;;;;;;;;17.01;nan;101371.13;5043531;28;19925;-32
2022/11/08 06:17:28;;;;;;;;;;;;;;;17.00;nan;101380.34;5041378;28;20598;-32
2022/11/08 06:19:54;;;;;;;;;;;;;;;16.98;nan;101387.91;5039813;28;19932;-32
2022/11/08 06:22:19;;;;;;;;;;;;;;;16.96;nan;101387.38;5042214;28;19916;-33
2022/11/08 06:24:44;;;;;;;;;;;;;;;16.94;nan;101394.16;5045774;28;19921;-32
2022/11/08 06:27:09;;;;;;;;;;;;;;;16.94;nan;101388.75;5040267;28;19936;-33
2022/11/08 06:29:35;;;;;;;;;;;;;;;16.93;nan;101382.53;5040702;28;20472;-33
2022/11/08 06:32:00;;;;;;;;;;;;;;;16.89;nan;101382.28;5036556;28;20015;-33
2022/11/08 06:34:26;;;;;;;;;;;;;;;16.86;nan;101385.50;5042163;28;20394;-32
2022/11/08 06:36:51;;;;;;;;;;;;;;;16.87;nan;101383.59;5045449;28;19916;-33
2022/11/08 06:39:17;;;;;;;;;;;;;;;16.86;nan;101373.88;5041965;28;19920;-33
2022/11/08 06:41:42;;;;;;;;;;;;;;;16.84;nan;101384.97;5043759;28;19925;-33
2022/11/08 06:44:07;;;;;;;;;;;;;;;16.85;nan;101380.38;5044115;28;19917;-32
2022/11/08 06:46:33;;;;;;;;;;;;;;;16.84;nan;101384.16;5039407;28;19921;-33
2022/11/08 06:48:58;;;;;;;;;;;;;;;16.83;nan;101385.25;5042661;28;19917;-32
2022/11/08 06:51:23;;;;;;;;;;;;;;;16.80;nan;101383.09;5042455;28;19927;-32
2022/11/08 06:53:49;;;;;;;;;;;;;;;16.82;nan;101383.63;5046533;28;19924;-33
2022/11/08 06:56:14;;;;;;;;;;;;;;;16.83;nan;101387.94;5044603;28;20451;-32
2022/11/08 06:58:39;;;;;;;;;;;;;;;16.84;nan;101390.38;5046875;28;19917;-33
2022/11/08 07:01:06;;;;;;;;;;;;;;;16.84;nan;101395.00;5040338;28;20386;-32
2022/11/08 07:03:32;;;;;;;;;;;;;;;16.86;nan;101398.22;5044680;28;19924;-33
2022/11/08 07:06:00;;;;;;;;;;;;;;;16.88;nan;101396.09;5041892;28;20391;-32
2022/11/08 07:08:25;;;;;;;;;;;;;;;16.89;nan;101395.00;5046437;28;19924;-32
2022/11/08 07:10:50;;;;;;;;;;;;;;;16.90;nan;101392.00;5044246;28;19923;-32
2022/11/08 07:13:16;;;;;;;;;;;;;;;16.92;nan;101402.56;5044035;28;19939;-32
2022/11/08 07:15:42;;;;;;;;;;;;;;;16.92;nan;101402.56;5042538;28;19924;-32
2022/11/08 07:18:11;;;;;;;;;;;;;;;16.93;nan;101401.47;5046502;28;20179;-32
2022/11/08 07:20:37;;;;;;;;;;;;;;;16.91;nan;101395.53;5041482;28;19924;-33
2022/11/08 07:23:02;;;;;;;;;;;;;;;16.87;nan;101403.38;5037273;28;20174;-33
2022/11/08 07:25:28;;;;;;;;;;;;;;;16.84;nan;101395.78;5043920;28;20390;-32
2022/11/08 07:27:54;;;;;;;;;;;;;;;16.85;nan;101396.59;5041365;28;19917;-32
2022/11/08 07:30:20;;;;;;;;;;;;;;;16.89;nan;101398.50;5043734;28;19956;-33
2022/11/08 07:32:45;;;;;;;;;;;;;;;16.95;nan;101393.88;5046366;28;20023;-33
2022/11/08 07:35:10;;;;;;;;;;;;;;;17.04;nan;101394.94;5044038;28;19918;-33
2022/11/08 07:37:36;;;;;;;;;;;;;;;17.16;nan;101397.34;5039743;28;19928;-33
2022/11/08 07:40:01;;;;;;;;;;;;;;;17.23;nan;101397.84;5045949;28;20186;-33
2022/11/08 07:42:26;;;;;;;;;;;;;;;17.33;nan;101397.81;5044380;28;19920;-33
2022/11/08 07:44:51;;;;;;;;;;;;;;;17.42;nan;101398.06;5048516;28;20398;-33
2022/11/08 07:47:17;;;;;;;;;;;;;;;17.50;nan;101406.41;5050255;28;20051;-33
2022/11/08 07:49:42;;;;;;;;;;;;;;;17.57;nan;101400.69;5046313;28;19917;-33
2022/11/08 07:52:07;;;;;;;;;;;;;;;17.63;nan;101396.88;5047632;28;20007;-32
2022/11/08 07:54:33;;;;;;;;;;;;;;;17.66;nan;101390.09;5047535;28;19947;-32
2022/11/08 07:56:58;;;;;;;;;;;;;;;17.69;nan;101395.78;5049084;28;19924;-32
2022/11/08 07:59:23;;;;;;;;;;;;;;;17.73;nan;101391.41;5046037;28;19924;-32
2022/11/08 08:01:49;;;;;;;;;;;;;;;17.84;nan;101400.31;5047803;28;20032;-33
2022/11/08 08:04:14;;;;;;;;;;;;;;;17.89;nan;101405.69;5049667;28;19924;-32
2022/11/08 08:06:39;;;;;;;;;;;;;;;17.92;nan;101405.13;5047803;28;19916;-32
2022/11/08 08:09:05;;;;;;;;;;;;;;;17.97;nan;101396.97;5049802;28;19925;-32
2022/11/08 08:11:30;;;;;;;;;;;;;;;17.99;nan;101399.41;5048357;28;20428;-33
2022/11/08 08:13:55;;;;;;;;;;;;;;;18.03;nan;101390.41;5049421;28;19963;-32
2022/11/08 08:16:21;;;;;;;;;;;;;;;18.09;nan;101393.88;5047193;28;19917;-32
2022/11/08 08:18:50;;;;;;;;;;;;;;;18.07;nan;101398.78;5047823;28;19917;-32
2022/11/08 08:21:15;;;;;;;;;;;;;;;18.03;nan;101395.03;5045090;28;19932;-32
2022/11/08 08:23:40;;;;;;;;;;;;;;;18.08;nan;101393.06;5044397;28;20299;-32
2022/11/08 08:26:06;;;;;;;;;;;;;;;18.09;nan;101393.88;5047491;28;20373;-32
2022/11/08 08:28:31;;;;;;;;;;;;;;;18.12;nan;101396.03;5044934;28;20220;-32
2022/11/08 08:30:57;;;;;;;;;;;;;;;18.05;nan;101390.94;5048273;28;19927;-32
2022/11/08 08:33:22;;;;;;;;;;;;;;;18.04;nan;101378.47;5045664;28;20712;-32
2022/11/08 08:35:48;;;;;;;;;;;;;;;18.14;nan;101385.75;5046890;28;19920;-32
2022/11/08 08:38:13;;;;;;;;;;;;;;;18.15;nan;101387.34;5043991;28;19923;-33
2022/11/08 08:40:39;;;;;;;;;;;;;;;18.25;nan;101381.03;5042271;28;19921;-32
2022/11/08 08:43:05;;;;;;;;;;;;;;;18.32;nan;101374.19;5048779;28;19927;-32
2022/11/08 08:45:31;;;;;;;;;;;;;;;18.35;nan;101370.91;5045327;28;19925;-33
2022/11/08 08:47:57;;;;;;;;;;;;;;;18.45;nan;101367.28;5046692;28;20413;-33
2022/11/08 08:50:23;;;;;;;;;;;;;;;18.57;nan;101365.00;5046614;28;19917;-32
2022/11/08 08:52:48;;;;;;;;;;;;;;;18.73;nan;101365.69;5045169;28;19925;-32
2022/11/08 08:55:14;;;;;;;;;;;;;;;18.83;nan;101364.75;5043589;28;19917;-32
2022/11/08 08:57:46;;;;;;;;;;;;;;;18.94;nan;101360.84;5040902;28;19916;-32
2022/11/08 09:00:12;;;;;;;;;;;;;;;19.06;nan;101363.97;5046016;28;19935;-33
2022/11/08 09:02:37;;;;;;;;;;;;;;;19.21;nan;101368.38;5043394;28;19918;-33
2022/11/08 09:05:03;;;;;;;;;;;;;;;19.34;nan;101367.69;5048359;28;19964;-32
2022/11/08 09:07:28;;;;;;;;;;;;;;;19.46;nan;101368.06;5045668;28;20282;-33
2022/11/08 09:09:54;;;;;;;;;;;;;;;19.54;nan;101362.00;5047777;28;19996;-33
2022/11/08 09:12:19;;;;;;;;;;;;;;;19.62;nan;101366.00;5047292;28;19927;-33
2022/11/08 09:14:44;;;;;;;;;;;;;;;19.68;nan;101356.66;5043494;28;19917;-33
2022/11/08 09:17:09;;;;;;;;;;;;;;;19.72;nan;101354.13;5048375;28;19917;-33
2022/11/08 09:19:35;;;;;;;;;;;;;;;19.87;nan;101362.88;5048456;28;20449;-33
2022/11/08 09:22:00;;;;;;;;;;;;;;;19.97;nan;101356.50;5047847;28;19923;-33
2022/11/08 09:24:26;;;;;;;;;;;;;;;20.04;nan;101362.34;5047852;28;19924;-33
2022/11/08 09:26:51;;;;;;;;;;;;;;;20.08;nan;101373.44;5045732;28;19924;-33
2022/11/08 09:29:16;;;;;;;;;;;;;;;20.00;nan;101368.69;5041368;28;19916;-33
2022/11/08 09:31:42;;;;;;;;;;;;;;;20.00;nan;101360.53;5044547;28;19917;-33
2022/11/08 09:34:07;;;;;;;;;;;;;;;20.11;nan;101359.28;5044623;28;20264;-33
2022/11/08 09:36:32;;;;;;;;;;;;;;;20.21;nan;101359.91;5044990;28;20011;-33
2022/11/08 09:38:58;;;;;;;;;;;;;;;20.34;nan;101354.78;5043208;28;19966;-33
2022/11/08 09:41:44;;;;;;;;;;;;;;;20.46;nan;101361.38;5046598;28;19931;-33
2022/11/08 09:44:12;;;;;;;;;;;;;;;20.46;nan;101361.38;5045141;28;19939;-33
2022/11/08 09:46:49;;;;;;;;;;;;;;;20.42;nan;101363.09;5045577;28;19955;-33
2022/11/08 09:49:21;;;;;;;;;;;;;;;20.48;nan;101366.56;5042331;28;20480;-33
2022/11/08 09:51:47;;;;;;;;;;;;;;;20.60;nan;101364.13;5042114;28;20295;-33
2022/11/08 09:54:17;;;;;;;;;;;;;;;20.67;nan;101363.75;5043219;28;19925;-33
2022/11/08 09:56:42;;;;;;;;;;;;;;;20.70;nan;101358.53;5045926;28;20297;-33
2022/11/08 09:59:17;;;;;;;;;;;;;;;20.79;nan;101362.16;5042825;28;20007;-33
2022/11/08 10:01:42;;;;;;;;;;;;;;;20.80;nan;101358.31;5045431;28;19921;-33
2022/11/08 10:04:12;;;;;;;;;;;;;;;20.96;nan;101358.00;5042786;28;20286;-33
2022/11/08 10:06:37;;;;;;;;;;;;;;;21.06;nan;101355.09;5043204;28;20541;-33
2022/11/08 10:09:15;;;;;;;;;;;;;;;21.17;nan;101356.50;5042004;28;19921;-33
2022/11/08 10:12:16;;;;;;;;;;;;;;;21.11;nan;101352.25;5043052;28;19921;-33
2022/11/08 10:14:51;;;;;;;;;;;;;;;21.08;nan;101344.69;4984629;28;19925;-33
2022/11/08 10:17:25;;;;;;;;;;;;;;;21.05;nan;101337.13;5030269;28;19917;-33
2022/11/08 10:19:59;;;;;;;;;;;;;;;21.05;nan;101332.50;5047384;28;20303;-33
2022/11/08 10:22:25;;;;;;;;;;;;;;;21.04;nan;101328.16;5042462;28;19931;-33
2022/11/08 10:24:56;;;;;;;;;;;;;;;21.12;nan;101323.91;5043900;28;19925;-33
2022/11/08 10:27:34;;;;;;;;;;;;;;;21.19;nan;101323.50;5044211;28;19920;-33
2022/11/08 10:30:01;;;;;;;;;;;;;;;21.16;nan;101327.63;5044701;28;19931;-33
2022/11/08 10:32:29;;;;;;;;;;;;;;;20.95;nan;101326.44;5042925;28;20457;-33
2022/11/08 10:35:03;;;;;;;;;;;;;;;20.92;nan;101321.59;5041002;28;20146;-33
2022/11/08 10:37:28;;;;;;;;;;;;;;;20.99;nan;101316.53;5047473;28;19942;-33
2022/11/08 10:39:57;;;;;;;;;;;;;;;21.07;nan;101319.38;5046728;28;20454;-33
2022/11/08 10:42:28;;;;;;;;;;;;;;;21.00;nan;101312.72;5042123;28;19920;-33
2022/11/08 10:44:53;;;;;;;;;;;;;;;20.87;nan;101305.38;5046360;28;19978;-33
2022/11/08 10:47:23;;;;;;;;;;;;;;;20.81;nan;101304.66;5041814;28;19916;-33
2022/11/08 10:49:48;;;;;;;;;;;;;;;20.83;nan;101298.94;5041916;28;20023;-33
2022/11/08 10:52:26;;;;;;;;;;;;;;;20.88;nan;101299.63;5042037;28;20021;-33
2022/11/08 10:54:52;;;;;;;;;;;;;;;20.86;nan;101303.75;5047133;28;19916;-33
2022/11/08 10:57:26;;;;;;;;;;;;;;;20.80;nan;101303.03;5044973;28;19917;-33
2022/11/08 10:59:53;;;;;;;;;;;;;;;20.75;nan;101294.97;5045823;28;20440;-33
2022/11/08 11:02:23;;;;;;;;;;;;;;;20.77;nan;101299.00;5045578;28;20002;-33
2022/11/08 11:04:49;;;;;;;;;;;;;;;20.57;nan;101293.97;5042547;28;19917;-33
2022/11/08 11:07:43;;;;;;;;;;;;;;;20.69;nan;101290.75;5046457;28;19927;-33
2022/11/08 11:10:14;;;;;;;;;;;;;;;20.75;nan;101284.91;5029865;28;19962;-33
2022/11/08 11:12:40;;;;;;;;;;;;;;;20.89;nan;101290.34;5043801;28;19924;-33
2022/11/08 11:15:12;;;;;;;;;;;;;;;21.02;nan;101280.53;5044867;28;20382;-33
2022/11/08 11:17:38;;;;;;;;;;;;;;;21.16;nan;101281.31;5041195;28;19917;-33
2022/11/08 11:20:03;;;;;;;;;;;;;;;21.24;nan;101286.06;5043499;28;20391;-33
2022/11/08 11:22:31;;;;;;;;;;;;;;;21.26;nan;101283.03;5049884;28;20037;-33
2022/11/08 11:25:02;;;;;;;;;;;;;;;21.24;nan;101280.63;5045418;28;19932;-33
2022/11/08 11:27:29;;;;;;;;;;;;;;;21.28;nan;101273.44;5050755;28;19931;-33
2022/11/08 11:30:15;;;;;;;;;;;;;;;21.35;nan;101276.53;5045042;28;20334;-33
2022/11/08 11:32:52;;;;;;;;;;;;;;;21.45;nan;101277.44;5032045;28;19917;-33
2022/11/08 11:35:19;;;;;;;;;;;;;;;21.56;nan;101271.44;5048583;28;19979;-33
2022/11/08 11:37:45;;;;;;;;;;;;;;;21.71;nan;101275.69;5049875;28;19920;-33
2022/11/08 11:40:25;;;;;;;;;;;;;;;21.84;nan;101272.09;5045716;28;19920;-33
2022/11/08 11:42:50;;;;;;;;;;;;;;;21.88;nan;101269.56;5047072;28;20045;-34
2022/11/08 11:45:22;;;;;;;;;;;;;;;21.94;nan;101268.34;5048392;28;20006;-33
2022/11/08 11:47:48;;;;;;;;;;;;;;;21.99;nan;101263.53;5048992;28;19917;-34
2022/11/08 11:50:36;;;;;;;;;;;;;;;22.12;nan;101264.63;5049186;28;19927;-33
2022/11/08 11:53:05;;;;;;;;;;;;;;;22.26;nan;101259.03;5041322;28;19983;-34
2022/11/08 11:55:49;;;;;;;;;;;;;;;22.38;nan;101262.00;5042651;28;19917;-34
2022/11/08 11:58:33;;;;;;;;;;;;;;;22.41;nan;101257.81;5045853;28;20461;-34
2022/11/08 12:01:04;;;;;;;;;;;;;;;22.53;nan;101261.56;5043445;28;20108;-34
2022/11/08 12:03:39;;;;;;;;;;;;;;;22.68;nan;101256.81;5048605;28;19963;-34
2022/11/08 12:06:27;;;;;;;;;;;;;;;22.79;nan;101269.03;5043284;28;19921;-34
2022/11/08 12:09:00;;;;;;;;;;;;;;;22.83;nan;101256.41;5044983;28;20333;-34
2022/11/08 12:11:44;;;;;;;;;;;;;;;22.90;nan;101254.81;5035911;28;20112;-34
2022/11/08 12:14:33;;;;;;;;;;;;;;;23.07;nan;101258.69;5042073;28;19917;-34
2022/11/08 12:17:17;;;;;;;;;;;;;;;22.98;nan;101247.75;5037211;28;19924;-34
2022/11/08 12:19:42;;;;;;;;;;;;;;;23.02;nan;101248.72;5037276;28;19921;-34
2022/11/08 12:22:23;;;;;;;;;;;;;;;23.04;nan;101251.94;5040589;28;20389;-34
2022/11/08 12:24:53;;;;;;;;;;;;;;;23.03;nan;101244.88;5036008;28;20722;-34
2022/11/08 12:27:27;;;;;;;;;;;;;;;23.05;nan;101241.81;5040726;28;19920;-34
2022/11/08 12:30:07;;;;;;;;;;;;;;;23.14;nan;101239.88;5041865;28;20258;-34
2022/11/08 12:32:35;;;;;;;;;;;;;;;23.29;nan;101236.66;5040538;28;19921;-34
2022/11/08 12:35:19;;;;;;;;;;;;;;;23.35;nan;101229.13;5036172;28;19920;-34
2022/11/08 12:37:48;;;;;;;;;;;;;;;23.39;nan;101227.34;5039246;28;19932;-34
2022/11/08 12:40:17;;;;;;;;;;;;;;;23.48;nan;101225.41;5039939;28;19955;-34
2022/11/08 12:42:42;;;;;;;;;;;;;;;23.39;nan;101219.94;5039461;28;19921;-34
2022/11/08 12:45:08;;;;;;;;;;;;;;;23.37;nan;101226.88;5038574;28;19917;-34
2022/11/08 12:47:48;;;;;;;;;;;;;;;23.48;nan;101222.66;5039605;28;19925;-34
2022/11/08 12:50:16;;;;;;;;;;;;;;;23.68;nan;101213.00;5042012;28;20314;-34
2022/11/08 12:53:01;;;;;;;;;;;;;;;24.01;nan;101221.47;5038784;28;19927;-34
2022/11/08 12:55:31;;;;;;;;;;;;;;;24.44;nan;101223.25;5040286;28;20440;-34
2022/11/08 12:57:58;;;;;;;;;;;;;;;24.75;nan;101215.50;5039180;28;19983;-34
2022/11/08 13:00:26;;;;;;;;;;;;;;;24.91;nan;101202.00;5043556;28;19986;-34
2022/11/08 13:03:07;;;;;;;;;;;;;;;24.94;nan;101213.09;5039161;28;20016;-34
2022/11/08 13:05:38;;;;;;;;;;;;;;;24.90;nan;101201.19;5043752;28;19925;-34
2022/11/08 13:08:11;;;;;;;;;;;;;;;24.85;nan;101198.66;5040868;28;20018;-34
2022/11/08 13:11:03;;;;;;;;;;;;;;;24.62;nan;101203.66;5042665;28;20305;-34
2022/11/08 13:13:44;;;;;;;;;;;;;;;24.42;nan;101207.16;5033598;28;19921;-34
2022/11/08 13:16:14;;;;;;;;;;;;;;;24.46;nan;101199.09;5039573;28;20015;-34
2022/11/08 13:18:42;;;;;;;;;;;;;;;24.53;nan;101191.94;5037933;28;20292;-34
2022/11/08 13:21:26;;;;;;;;;;;;;;;24.55;nan;101188.88;5039163;28;19955;-34
2022/11/08 13:23:52;;;;;;;;;;;;;;;24.63;nan;101186.09;5044923;28;19935;-34